Latest Weather Observations for Bougainville Reef

IDQ60801

Issued at 4:05 am EST Tuesday 23 September 2014 (issued every 30 minutes, with the page automatically refreshed every 10 minutes)

About weather observations | Map of weather stations | Latest weather observations for QLD | Other Formats
Station Details ID: 200840 Name: BOUGAINVILLE REEF Lat: -15.49 Lon: 147.12 Height: 0.0 m
Data from the previous 72 hours. | See also: Recent months for locations in Queensland
Date/Time
EST
Temp
°C
App
Temp
°C
Dew
Point
Rel
Hum
%
Delta-T
°C
Wind Press
QNH
hPa
Press
MSL
hPa
Rain
since 9 am
mm
Dir
 
Spd
km/h
Gust
km/h
Spd
kts
Gust
kts
23/04:00am 24.2 - - - - E 35 50 19 27 1014.1 1014.1 -
23/03:45am 24.4 - - - - ENE 35 46 19 25 1014.2 - -
23/03:43am 24.2 - - - - NNE 41 48 22 26 1014.2 - -
23/03:40am 24.3 - - - - E 35 48 19 26 1014.1 - -
23/03:38am 24.3 - - - - NNE 41 48 22 26 1014.1 - -
23/03:32am 24.1 - - - - E 39 52 21 28 1014.0 - -
23/03:30am 24.4 - - - - NE 43 52 23 28 1014.0 - -
23/03:27am 24.2 - - - - NE 41 52 22 28 1014.0 - -
23/03:26am 24.2 - - - - E 37 50 20 27 1014.0 - -
23/03:25am 24.3 - - - - SE 35 50 19 27 1014.0 - -
23/03:06am 24.3 - - - - ENE 41 46 22 25 1013.9 - -
23/03:03am 24.2 - - - - NNE 41 48 22 26 1013.9 - -
23/03:00am 24.2 - - - - ENE 37 48 20 26 1014.0 1013.8 -
23/02:59am 24.5 - - - - E 37 48 20 26 1014.0 - -
23/02:54am 24.2 - - - - NNE 41 46 22 25 1014.0 - -
23/02:45am 24.3 - - - - NE 37 46 20 25 1014.0 - -
23/02:42am 24.2 - - - - ESE 33 46 18 25 1014.0 - -
23/02:30am 24.3 - - - - NE 37 46 20 25 1014.1 - -
23/02:00am 24.3 - - - - ENE 32 46 17 25 1014.3 1014.3 -
23/01:30am 24.4 - - - - NE 33 43 18 23 1014.7 - -
23/01:00am 24.3 - - - - ENE 37 44 20 24 1014.8 1014.7 -
23/12:58am 24.4 - - - - NNE 35 44 19 24 1014.8 - -
23/12:34am 24.3 - - - - NE 37 44 20 24 1015.0 - -
23/12:32am 24.3 - - - - ESE 33 44 18 24 1015.0 - -
23/12:30am 24.4 - - - - NNE 37 44 20 24 1015.0 - -
23/12:28am 24.5 - - - - NNE 37 44 20 24 1015.0 - -
23/12:18am 24.4 - - - - E 33 44 18 24 1015.1 - -
23/12:11am 24.3 - - - - NNE 39 46 21 25 1015.1 - -
23/12:00am 24.3 - - - - NNE 39 43 21 23 1015.2 1015.1 -
 
Date/Time
EST
Temp
°C
App
Temp
°C
Dew
Point
Rel
Hum
%
Delta-T
°C
Wind Press
QNH
hPa
Press
MSL
hPa
Rain
since 9 am
mm
Dir
 
Spd
km/h
Gust
km/h
Spd
kts
Gust
kts
22/11:58pm 24.3 - - - - NNE 37 44 20 24 1015.2 - -
22/11:56pm 24.4 - - - - E 33 44 18 24 1015.3 - -
22/11:49pm 24.3 - - - - NNE 39 44 21 24 1015.2 - -
22/11:30pm 24.5 - - - - E 35 46 19 25 1015.3 - -
22/11:20pm 24.4 - - - - NNE 37 44 20 24 1015.4 - -
22/11:00pm 24.4 - - - - NE 41 46 22 25 1015.5 1015.5 -
22/10:56pm 24.4 - - - - E 35 46 19 25 1015.6 - -
22/10:47pm 24.4 - - - - NE 41 50 22 27 1015.6 - -
22/10:30pm 24.4 - - - - E 44 52 24 28 1015.6 - -
22/10:15pm 24.4 - - - - E 44 50 24 27 1015.6 - -
22/10:07pm 24.4 - - - - ENE 39 48 21 26 1015.7 - -
22/10:03pm 24.5 - - - - NNW 37 50 20 27 1015.7 - -
22/10:00pm 24.4 - - - - ESE 41 50 22 27 1015.7 1015.6 -
22/09:30pm 24.5 - - - - ESE 39 48 21 26 1015.7 - -
22/09:00pm 24.2 - - - - SE 35 46 19 25 1015.5 1015.4 -
22/08:30pm 24.3 - - - - SE 37 43 20 23 1015.5 - -
22/08:00pm 24.4 - - - - SE 35 44 19 24 1015.4 1015.2 -
22/07:30pm 24.3 - - - - ESE 33 44 18 24 1015.1 - -
22/07:00pm 24.4 - - - - SE 37 46 20 25 1014.9 1014.7 -
22/06:30pm 24.4 - - - - SE 39 46 21 25 1014.4 - -
22/06:00pm 24.2 - - - - SE 39 46 21 25 1014.1 1013.9 -
22/05:30pm 24.5 - - - - SE 37 46 20 25 1014.0 - -
22/05:00pm 24.3 - - - - SSE 32 41 17 22 1013.7 1013.5 -
22/04:30pm 24.2 - - - - SE 33 41 18 22 1013.6 - -
22/04:00pm 24.3 - - - - SE 30 39 16 21 1013.5 1013.3 -
22/03:30pm 24.3 - - - - SSE 28 37 15 20 1013.3 - -
22/03:00pm 24.4 - - - - SSE 32 41 17 22 1013.1 1013.1 -
22/02:30pm 24.1 - - - - SSE 30 41 16 22 1013.2 - -
22/02:00pm 24.2 - - - - SSE 28 39 15 21 1013.6 1013.6 -
22/01:30pm 24.4 - - - - SSE 30 41 16 22 1014.0 - -
22/01:00pm 24.2 - - - - SSE 26 35 14 19 1014.4 1014.4 -
22/12:30pm 24.2 - - - - SSE 22 33 12 18 1014.7 - -
22/12:00pm 24.5 - - - - SSE 26 39 14 21 1015.3 1015.3 -
22/11:30am 24.2 - - - - SSE 28 39 15 21 1015.9 - -
22/11:00am 24.3 - - - - SSE 30 35 16 19 1016.3 1016.3 -
22/10:30am 24.4 - - - - SSE 30 37 16 20 1016.4 - -
22/10:00am 24.3 - - - - SSE 30 37 16 20 1016.5 1016.4 -
22/09:30am 24.6 - - - - SE 28 35 15 19 1016.5 - -
22/09:00am 24.3 - - - - SE 30 35 16 19 1016.5 1016.4 -
22/08:30am 24.1 - - - - SSE 28 39 15 21 1016.3 - -
22/08:00am 24.0 - - - - SE 26 35 14 19 1016.1 1015.9 -
22/07:30am 24.1 - - - - SE 26 32 14 17 1015.8 - -
22/07:00am 24.1 - - - - SSE 30 37 16 20 1015.4 1015.2 -
22/06:30am 24.1 - - - - SSE 30 39 16 21 1015.0 - -
22/06:00am 23.8 - - - - SE 30 37 16 20 1014.8 1014.7 -
22/05:30am 24.2 - - - - SSE 30 35 16 19 1014.8 - -
22/05:00am 23.8 - - - - SE 28 39 15 21 1014.5 1014.4 -
22/04:30am 24.0 - - - - SE 30 39 16 21 1014.4 - -
22/04:00am 23.8 - - - - SE 32 39 17 21 1014.2 1014.1 -
22/03:30am 23.9 - - - - ESE 33 41 18 22 1014.1 - -
22/03:00am 24.0 - - - - ESE 32 39 17 21 1014.1 1014.1 -
22/02:30am 23.8 - - - - ESE 30 39 16 21 1014.5 - -
22/02:00am 23.8 - - - - SE 33 41 18 22 1014.7 1014.7 -
22/01:30am 23.8 - - - - SE 28 39 15 21 1015.0 - -
22/01:00am 23.9 - - - - SE 20 32 11 17 1015.5 1015.5 -
22/12:30am 24.0 - - - - SE 24 32 13 17 1015.8 - -
22/12:00am 24.2 - - - - SE 32 39 17 21 1015.9 1015.8 -
 
Date/Time
EST
Temp
°C
App
Temp
°C
Dew
Point
Rel
Hum
%
Delta-T
°C
Wind Press
QNH
hPa
Press
MSL
hPa
Rain
since 9 am
mm
Dir
 
Spd
km/h
Gust
km/h
Spd
kts
Gust
kts
21/11:30pm 24.2 - - - - SE 33 43 18 23 1016.3 - -
21/11:00pm 24.2 - - - - SE 35 44 19 24 1016.4 1016.4 -
21/10:30pm 24.3 - - - - ESE 35 43 19 23 1016.5 - -
21/10:00pm 23.9 - - - - ESE 32 41 17 22 1016.5 1016.4 -
21/09:30pm 23.4 - - - - ESE 35 44 19 24 1016.4 - -
21/09:00pm 24.2 - - - - SE 28 37 15 20 1016.3 1016.3 -
21/08:30pm 24.2 - - - - ESE 32 41 17 22 1016.2 - -
21/08:00pm 24.4 - - - - E 33 41 18 22 1015.9 1015.7 -
21/07:39pm 24.4 - - - - E 37 44 20 24 1015.8 - -
21/07:30pm 24.3 - - - - SE 35 43 19 23 1015.7 - -
21/07:00pm 24.4 - - - - ESE 33 43 18 23 1015.3 1015.1 -
21/06:30pm 24.4 - - - - ESE 33 41 18 22 1015.0 - -
21/06:00pm 24.4 - - - - ESE 33 41 18 22 1014.6 1014.5 -
21/05:30pm 24.5 - - - - ESE 32 39 17 21 1014.6 - -
21/05:00pm 24.4 - - - - ESE 30 37 16 20 1014.2 1014.0 -
21/04:30pm 24.5 - - - - SE 32 39 17 21 1014.1 - -
21/04:00pm 24.5 - - - - SE 30 39 16 21 1014.2 1014.1 -
21/03:30pm 24.6 - - - - SE 32 39 17 21 1014.1 - -
21/03:00pm 24.4 - - - - SE 28 35 15 19 1014.2 1014.2 -
21/02:30pm 24.4 - - - - SE 28 35 15 19 1014.5 - -
21/02:00pm 24.5 - - - - SSE 26 35 14 19 1014.7 1014.7 -
21/01:30pm 24.6 - - - - SE 28 35 15 19 1015.1 - -
21/01:00pm 24.5 - - - - SE 28 35 15 19 1015.6 1015.4 -
21/12:30pm 24.6 - - - - SE 30 35 16 19 1016.0 - -
21/12:00pm 24.6 - - - - ESE 30 35 16 19 1016.4 1016.5 -
21/11:30am 24.7 - - - - ESE 32 43 17 23 1016.7 - -
21/11:00am 24.6 - - - - ESE 35 43 19 23 1016.7 1016.7 -
21/10:55am 24.6 - - - - E 37 43 20 23 1016.7 - -
21/10:30am 24.7 - - - - SE 35 43 19 23 1017.0 - -
21/10:00am 24.6 - - - - SE 33 44 18 24 1017.1 1017.0 -
21/09:30am 24.6 - - - - ESE 35 44 19 24 1017.1 - -
21/09:00am 24.7 - - - - ESE 41 46 22 25 1017.0 1016.9 -
21/08:30am 24.7 - - - - ESE 37 46 20 25 1016.8 - -
21/08:00am 24.3 - - - - ESE 39 44 21 24 1016.2 1015.9 -
21/07:30am 24.4 - - - - ESE 41 48 22 26 1015.8 - -
21/07:00am 24.5 - - - - ESE 37 46 20 25 1015.5 1015.2 -
21/06:30am 24.3 - - - - ESE 39 46 21 25 1015.0 - -
21/06:00am 24.5 - - - - ESE 41 46 22 25 1014.6 1014.5 -
21/05:30am 24.2 - - - - ESE 37 44 20 24 1014.4 - -
21/05:00am 24.4 - - - - ESE 41 48 22 26 1013.9 1013.8 -
21/04:30am 24.4 - - - - ESE 43 52 23 28 1013.7 - -
21/04:00am 24.3 - - - - ESE 39 - 21 - - 1013.4 -
21/03:30am 24.4 - - - - ESE 39 44 21 24 1013.5 - -
21/03:00am 24.4 - - - - ESE 41 44 22 24 1013.7 1013.7 -
21/02:30am 24.3 - - - - ESE 41 46 22 25 1013.8 - -
21/02:00am 24.2 - - - - ESE 39 46 21 25 1014.0 1014.1 -
21/01:30am 24.3 - - - - ESE 37 43 20 23 1014.7 - -
21/01:00am 24.4 - - - - ESE 33 41 18 22 1015.3 1015.4 -
21/12:30am 24.1 - - - - ESE 32 41 17 22 1015.6 - -
21/12:00am 24.2 - - - - SE 35 43 19 23 1015.7 1015.6 -
 
Date/Time
EST
Temp
°C
App
Temp
°C
Dew
Point
Rel
Hum
%
Delta-T
°C
Wind Press
QNH
hPa
Press
MSL
hPa
Rain
since 9 am
mm
Dir
 
Spd
km/h
Gust
km/h
Spd
kts
Gust
kts
20/11:30pm 24.3 - - - - ESE 33 39 18 21 1015.8 - -
20/11:00pm 24.3 - - - - ESE 30 39 16 21 1016.0 1016.0 -
20/10:30pm 24.3 - - - - ESE 30 39 16 21 1016.1 - -
20/10:00pm 24.2 - - - - SE 32 37 17 20 1016.2 1016.1 -
20/09:30pm 24.3 - - - - ESE 32 39 17 21 1015.9 - -
20/09:00pm 24.2 - - - - ESE 32 41 17 22 1015.8 1015.7 -
20/08:30pm 24.4 - - - - ESE 32 39 17 21 1015.6 - -
20/08:00pm 24.5 - - - - SE 28 39 15 21 1015.6 1015.5 -
20/07:30pm 24.3 - - - - E 32 41 17 22 1015.5 - -
20/07:00pm 24.3 - - - - ENE 32 39 17 21 1015.1 1015.0 -
20/06:30pm 24.3 - - - - NE 30 37 16 20 1014.9 - -
20/06:00pm 24.3 - - - - SE 28 39 15 21 1014.7 1014.5 -
20/05:30pm 24.2 - - - - SE 32 39 17 21 1014.4 - -
20/05:00pm 24.1 - - - - SE 30 39 16 21 1014.0 1013.8 -
20/04:30pm 24.3 - - - - SSE 28 39 15 21 1013.7 - -
20/04:00pm 24.3 - - - - ESE 30 37 16 20 1013.3 1013.1 -
20/03:30pm 24.0 - - - - SE 30 39 16 21 1013.2 - -
20/03:00pm 24.1 - - - - SE 28 44 15 24 1013.1 1013.1 -
20/02:30pm 24.0 - - - - SSE 30 41 16 22 1013.4 - -
20/02:00pm 24.1 - - - - SSE 28 41 15 22 1013.6 1013.7 -
20/01:30pm 24.2 - - - - SSE 28 41 15 22 1014.1 - -
20/01:00pm 24.2 - - - - ESE 24 37 13 20 1014.6 1014.7 -
20/12:30pm 24.2 - - - - SSE 26 41 14 22 1014.9 - -
20/12:00pm 24.1 - - - - SSE 26 35 14 19 1015.2 1015.2 -
20/11:30am 24.3 - - - - SSE 26 37 14 20 1015.5 - -
20/11:00am 24.2 - - - - SSE 30 43 16 23 1015.9 1015.9 -
20/10:30am 24.3 - - - - SSE 28 41 15 22 1016.4 - -
20/10:00am 24.4 - - - - SE 26 39 14 21 1016.6 1016.6 -
20/09:30am 24.4 - - - - SE 22 35 12 19 1016.8 - -
20/09:00am 24.5 - - - - SSE 28 35 15 19 1016.9 1016.7 -
20/08:30am 24.4 - - - - SSE 26 35 14 19 1016.7 - -
20/08:00am 24.4 - - - - SSE 26 35 14 19 1016.4 1016.1 -
20/07:30am 24.3 - - - - SE 22 35 12 19 1015.7 - -
20/07:00am 24.4 - - - - SE 24 33 13 18 1015.5 1015.2 -
20/06:30am 24.2 - - - - SE 22 30 12 16 1015.0 - -
20/06:00am 24.4 - - - - SSE 24 30 13 16 1014.6 1014.4 -
20/05:30am 24.4 - - - - E 24 33 13 18 1014.4 - -
20/05:00am 24.2 - - - - ESE 28 33 15 18 1014.0 1013.8 -
20/04:30am 24.1 - - - - ESE 30 37 16 20 1013.9 - -

Other Formats:

Comma delimited format used in spreadsheet applications
http://www.bom.gov.au/fwo/IDQ60801/IDQ60801.95288.axf

JavaScript Object Notation format (JSON) in row-major order
http://www.bom.gov.au/fwo/IDQ60801/IDQ60801.95288.json